createdAt,value
2019-03-02T00:01:02.377Z,4.90
2019-03-02T00:02:09.674Z,4.90
2019-03-02T00:03:16.374Z,4.90
2019-03-02T00:04:23.113Z,4.90
2019-03-02T00:05:29.776Z,4.90
2019-03-02T00:06:36.632Z,4.90
2019-03-02T00:07:47.663Z,4.80
2019-03-02T00:08:53.181Z,4.80
2019-03-02T00:09:59.835Z,4.80
2019-03-02T00:11:07.242Z,4.80
2019-03-02T00:12:13.897Z,4.80
2019-03-02T00:13:21.368Z,4.90
2019-03-02T00:14:28.422Z,4.90
2019-03-02T00:15:35.443Z,4.90
2019-03-02T00:16:43.326Z,4.90
2019-03-02T00:17:53.998Z,4.90
2019-03-02T00:18:59.414Z,4.90
2019-03-02T00:20:06.547Z,4.90
2019-03-02T00:21:13.770Z,4.90
2019-03-02T00:22:20.530Z,4.80
2019-03-02T00:23:27.746Z,4.90
2019-03-02T00:24:34.549Z,4.90
2019-03-02T00:25:41.306Z,4.90
2019-03-02T00:26:48.126Z,4.90
2019-03-02T00:27:58.115Z,4.90
2019-03-02T00:29:03.456Z,4.90
2019-03-02T00:30:11.064Z,4.90
2019-03-02T00:31:18.043Z,4.90
2019-03-02T00:32:25.630Z,4.90
2019-03-02T00:33:32.509Z,4.90
2019-03-02T00:34:39.589Z,4.90
2019-03-02T00:35:46.576Z,4.80
2019-03-02T00:36:55.206Z,4.90
2019-03-02T00:38:04.855Z,4.90
2019-03-02T00:39:11.333Z,4.90
2019-03-02T00:40:18.072Z,4.90
2019-03-02T00:41:25.072Z,4.90
2019-03-02T00:42:32.073Z,4.90
2019-03-02T00:43:39.844Z,4.90
2019-03-02T00:44:46.563Z,4.80
2019-03-02T00:45:53.706Z,4.80
2019-03-02T00:47:01.114Z,4.80
2019-03-02T00:48:11.124Z,4.80
2019-03-02T00:49:19.516Z,4.80
2019-03-02T00:50:25.583Z,4.80
2019-03-02T00:51:33.088Z,4.80
2019-03-02T00:52:39.812Z,4.80
2019-03-02T00:53:46.994Z,4.80
2019-03-02T00:54:58.158Z,4.80
2019-03-02T00:56:04.051Z,4.80
2019-03-02T00:57:14.748Z,4.80
2019-03-02T00:58:20.217Z,4.80
2019-03-02T00:59:27.250Z,4.80
2019-03-02T01:00:34.724Z,4.80
2019-03-02T01:01:41.427Z,4.90
2019-03-02T01:02:48.583Z,4.90
2019-03-02T01:03:55.781Z,4.90
2019-03-02T01:05:03.096Z,4.90
2019-03-02T01:06:12.701Z,4.90
2019-03-02T01:07:20.750Z,4.90
2019-03-02T01:08:27.550Z,4.90
2019-03-02T01:09:34.640Z,4.90
2019-03-02T01:10:41.374Z,4.80
2019-03-02T01:11:48.225Z,4.90
2019-03-02T01:12:55.087Z,4.90
2019-03-02T01:14:02.141Z,4.80
2019-03-02T01:15:13.025Z,4.90
2019-03-02T01:16:20.875Z,4.90
2019-03-02T01:17:30.779Z,4.90
2019-03-02T01:18:38.728Z,4.90
2019-03-02T01:19:44.895Z,4.90
2019-03-02T01:20:51.659Z,4.90
2019-03-02T01:21:58.619Z,4.90
2019-03-02T01:23:05.737Z,4.90
2019-03-02T01:24:12.641Z,4.90
2019-03-02T01:25:19.643Z,4.90
2019-03-02T01:26:26.394Z,5.00
2019-03-02T01:27:35.058Z,4.90
2019-03-02T01:28:41.639Z,4.90
2019-03-02T01:29:51.668Z,5.00
2019-03-02T01:31:01.787Z,5.00
2019-03-02T01:32:07.472Z,5.00
2019-03-02T01:33:14.825Z,5.00
2019-03-02T01:34:22.219Z,5.00
2019-03-02T01:35:29.177Z,5.00
2019-03-02T01:36:36.374Z,5.00
2019-03-02T01:37:43.972Z,5.00
2019-03-02T01:38:54.025Z,5.00
2019-03-02T01:40:01.004Z,5.00
2019-03-02T01:41:10.364Z,5.00
2019-03-02T01:42:17.448Z,5.00
2019-03-02T01:43:24.155Z,4.90
2019-03-02T01:44:31.251Z,4.90
2019-03-02T01:45:39.041Z,4.90
2019-03-02T01:46:45.734Z,4.80
2019-03-02T01:47:52.567Z,4.80
2019-03-02T01:49:01.615Z,4.80
2019-03-02T01:50:11.990Z,4.80
2019-03-02T01:51:19.699Z,4.80
2019-03-02T01:52:26.803Z,4.80
2019-03-02T01:53:33.676Z,4.70
2019-03-02T01:54:40.387Z,4.80
2019-03-02T01:55:47.456Z,4.80
2019-03-02T01:56:54.239Z,4.70
2019-03-02T01:58:01.233Z,4.70
2019-03-02T01:59:08.291Z,4.70
2019-03-02T02:00:23.477Z,4.70
2019-03-02T02:01:30.203Z,4.70
2019-03-02T02:02:37.274Z,4.70
2019-03-02T02:03:47.033Z,4.70
2019-03-02T02:04:54.524Z,4.70
2019-03-02T02:06:03.713Z,4.70
2019-03-02T02:07:09.534Z,4.60
2019-03-02T02:08:16.382Z,4.60
2019-03-02T02:09:23.157Z,4.60
2019-03-02T02:10:30.324Z,4.60
2019-03-02T02:11:37.864Z,4.60
2019-03-02T02:12:44.665Z,4.60
2019-03-02T02:13:51.663Z,4.70
2019-03-02T02:14:58.539Z,4.60
2019-03-02T02:16:06.801Z,4.70
2019-03-02T02:17:14.442Z,4.60
2019-03-02T02:18:27.432Z,4.60
2019-03-02T02:19:30.859Z,4.60
2019-03-02T02:20:37.841Z,4.60
2019-03-02T02:21:44.526Z,4.60
2019-03-02T02:22:51.550Z,4.60
2019-03-02T02:23:58.323Z,4.60
2019-03-02T02:25:05.435Z,4.60
2019-03-02T02:26:12.670Z,4.60
2019-03-02T02:27:22.531Z,4.60
2019-03-02T02:28:29.064Z,4.60
2019-03-02T02:29:36.766Z,4.60
2019-03-02T02:30:43.834Z,4.60
2019-03-02T02:31:50.604Z,4.60
2019-03-02T02:33:04.327Z,4.60
2019-03-02T02:34:06.280Z,4.60
2019-03-02T02:35:13.028Z,4.60
2019-03-02T02:36:20.478Z,4.60
2019-03-02T02:37:32.035Z,4.60
2019-03-02T02:38:35.687Z,4.60
2019-03-02T02:39:42.362Z,4.60
2019-03-02T02:40:49.508Z,4.60
2019-03-02T02:41:59.961Z,4.60
2019-03-02T02:43:04.790Z,4.60
2019-03-02T02:44:12.102Z,4.60
2019-03-02T02:45:19.954Z,4.60
2019-03-02T02:46:27.627Z,4.60
2019-03-02T02:47:35.402Z,4.60
2019-03-02T02:48:42.336Z,4.60
2019-03-02T02:49:50.965Z,4.50
2019-03-02T02:50:58.381Z,4.60
2019-03-02T02:52:05.169Z,4.60
2019-03-02T02:53:12.322Z,4.50
2019-03-02T02:54:23.198Z,4.50
2019-03-02T02:55:27.788Z,4.60
2019-03-02T02:56:34.781Z,4.50
2019-03-02T02:57:41.919Z,4.50
2019-03-02T02:58:55.347Z,4.50
2019-03-02T02:59:57.722Z,4.60
2019-03-02T03:01:04.466Z,4.60
2019-03-02T03:02:12.274Z,4.50
2019-03-02T03:03:20.763Z,4.60
2019-03-02T03:04:27.742Z,4.50
2019-03-02T03:05:34.601Z,4.60
2019-03-02T03:06:41.322Z,4.50
2019-03-02T03:07:53.299Z,4.60
2019-03-02T03:08:57.276Z,4.60
2019-03-02T03:10:14.734Z,4.50
2019-03-02T03:11:21.993Z,4.60
2019-03-02T03:12:28.653Z,4.50
2019-03-02T03:13:35.962Z,4.50
2019-03-02T03:14:43.857Z,4.50
2019-03-02T03:15:51.786Z,4.50
2019-03-02T03:16:58.475Z,4.50
2019-03-02T03:18:07.315Z,4.50
2019-03-02T03:19:14.247Z,4.50
2019-03-02T03:20:21.217Z,4.50
2019-03-02T03:21:29.503Z,4.50
2019-03-02T03:22:40.907Z,4.60
2019-03-02T03:23:45.141Z,4.50
2019-03-02T03:24:52.358Z,4.50
2019-03-02T03:25:59.123Z,4.50
2019-03-02T03:27:09.032Z,4.60
2019-03-02T03:28:15.377Z,4.60
2019-03-02T03:29:22.447Z,4.50
2019-03-02T03:30:35.387Z,4.60
2019-03-02T03:31:37.982Z,4.50
2019-03-02T03:32:54.708Z,4.60
2019-03-02T03:33:53.045Z,4.50
2019-03-02T03:34:59.737Z,4.60
2019-03-02T03:36:06.428Z,4.60
2019-03-02T03:37:14.920Z,4.60
2019-03-02T03:38:24.922Z,4.50
2019-03-02T03:39:30.811Z,4.50
2019-03-02T03:40:38.243Z,4.60
2019-03-02T03:41:45.122Z,4.60
2019-03-02T03:42:52.364Z,4.60
2019-03-02T03:43:59.485Z,4.60
2019-03-02T03:45:09.851Z,4.50
2019-03-02T03:46:17.831Z,4.60
2019-03-02T03:47:25.232Z,4.60
2019-03-02T03:48:32.436Z,4.50
2019-03-02T03:49:39.405Z,4.60
2019-03-02T03:50:48.020Z,4.60
2019-03-02T03:51:55.490Z,4.60
2019-03-02T03:53:02.139Z,4.50
2019-03-02T03:54:09.298Z,4.60
2019-03-02T03:55:23.801Z,4.50
2019-03-02T03:56:26.270Z,4.60
2019-03-02T03:57:33.311Z,4.50
2019-03-02T03:58:41.446Z,4.60
2019-03-02T03:59:53.619Z,4.50
2019-03-02T04:00:57.240Z,4.50
2019-03-02T04:02:04.454Z,4.50
2019-03-02T04:03:13.631Z,4.50
2019-03-02T04:04:19.830Z,4.50
2019-03-02T04:05:27.080Z,4.50
2019-03-02T04:06:33.929Z,4.50
2019-03-02T04:07:48.908Z,4.50
2019-03-02T04:08:49.788Z,4.50
2019-03-02T04:09:57.006Z,4.50
2019-03-02T04:11:04.680Z,4.50
2019-03-02T04:12:12.869Z,4.50
2019-03-02T04:13:19.582Z,4.50
2019-03-02T04:14:26.328Z,4.50
2019-03-02T04:15:40.991Z,4.50
2019-03-02T04:16:41.781Z,4.50
2019-03-02T04:17:48.474Z,4.50
2019-03-02T04:19:00.148Z,4.50
2019-03-02T04:20:12.544Z,4.50
2019-03-02T04:21:23.206Z,4.50
2019-03-02T04:22:28.549Z,4.50
2019-03-02T04:23:35.250Z,4.50
2019-03-02T04:24:42.345Z,4.50
2019-03-02T04:25:52.031Z,4.50
2019-03-02T04:26:57.398Z,4.50
2019-03-02T04:28:05.911Z,4.50
2019-03-02T04:29:12.631Z,4.50
2019-03-02T04:30:19.307Z,4.50
2019-03-02T04:31:25.983Z,4.50
2019-03-02T04:32:32.717Z,4.50
2019-03-02T04:33:43.263Z,4.50
2019-03-02T04:34:49.666Z,4.50
2019-03-02T04:35:56.350Z,4.50
2019-03-02T04:37:03.099Z,4.50
2019-03-02T04:38:09.791Z,4.50
2019-03-02T04:39:16.933Z,4.50
2019-03-02T04:40:27.851Z,4.50
2019-03-02T04:41:32.077Z,4.50
2019-03-02T04:42:38.728Z,4.50
2019-03-02T04:43:45.829Z,4.50
2019-03-02T04:44:52.549Z,4.50
2019-03-02T04:45:59.537Z,4.50
2019-03-02T04:47:06.240Z,4.50
2019-03-02T04:48:12.912Z,4.50
2019-03-02T04:49:19.598Z,4.50
2019-03-02T04:50:27.043Z,4.50
2019-03-02T04:51:38.812Z,4.50
2019-03-02T04:52:46.691Z,4.50
2019-03-02T04:53:52.165Z,4.50
2019-03-02T04:54:59.635Z,4.50
2019-03-02T04:56:06.404Z,4.50
2019-03-02T04:57:13.664Z,4.50
2019-03-02T04:58:20.338Z,4.50
2019-03-02T04:59:27.419Z,4.50
2019-03-02T05:00:34.109Z,4.50
2019-03-02T05:01:43.730Z,4.50
2019-03-02T05:02:51.567Z,4.50
2019-03-02T05:03:58.342Z,4.50
2019-03-02T05:05:08.339Z,4.50
2019-03-02T05:06:15.705Z,4.50
2019-03-02T05:07:22.141Z,4.50
2019-03-02T05:08:29.019Z,4.50
2019-03-02T05:09:35.736Z,4.50
2019-03-02T05:10:42.395Z,4.50
2019-03-02T05:11:49.463Z,4.50
2019-03-02T05:12:56.444Z,4.50
2019-03-02T05:14:04.301Z,4.50
2019-03-02T05:15:16.009Z,4.50
2019-03-02T05:16:21.986Z,4.50
2019-03-02T05:17:28.724Z,4.50
2019-03-02T05:18:35.427Z,4.50
2019-03-02T05:19:42.144Z,4.50
2019-03-02T05:20:49.095Z,4.50
2019-03-02T05:21:55.832Z,4.50
2019-03-02T05:23:02.876Z,4.50
2019-03-02T05:24:10.203Z,4.50
2019-03-02T05:25:19.039Z,4.50
2019-03-02T05:26:25.900Z,4.40
2019-03-02T05:27:32.998Z,4.40
2019-03-02T05:28:42.989Z,4.40
2019-03-02T05:29:50.771Z,4.40
2019-03-02T05:30:56.814Z,4.40
2019-03-02T05:32:04.286Z,4.50
2019-03-02T05:33:11.592Z,4.40
2019-03-02T05:34:18.610Z,4.50
2019-03-02T05:35:25.703Z,4.40
2019-03-02T05:36:33.229Z,4.40
2019-03-02T05:37:40.714Z,4.40
2019-03-02T05:38:47.963Z,4.50
2019-03-02T05:39:54.709Z,4.40
2019-03-02T05:41:02.602Z,4.50
2019-03-02T05:42:13.547Z,4.40
2019-03-02T05:43:19.141Z,4.40
2019-03-02T05:44:25.891Z,4.40
2019-03-02T05:45:32.559Z,4.40
2019-03-02T05:46:39.263Z,4.40
2019-03-02T05:47:45.976Z,4.40
2019-03-02T05:48:52.732Z,4.50
2019-03-02T05:49:59.410Z,4.40
2019-03-02T05:51:06.739Z,4.40
2019-03-02T05:52:14.493Z,4.40
2019-03-02T05:53:22.425Z,4.50
2019-03-02T05:54:29.313Z,4.40
2019-03-02T05:55:36.027Z,4.40
2019-03-02T05:56:42.753Z,4.50
2019-03-02T05:57:49.412Z,4.50
2019-03-02T05:58:56.464Z,4.50
2019-03-02T06:00:03.417Z,4.50
2019-03-02T06:01:10.465Z,4.50
2019-03-02T06:02:18.196Z,4.50
2019-03-02T06:03:25.254Z,4.50
2019-03-02T06:04:32.321Z,4.50
2019-03-02T06:05:39.464Z,4.50
2019-03-02T06:06:46.257Z,4.50
2019-03-02T06:07:53.837Z,4.50
2019-03-02T06:09:01.734Z,4.50
2019-03-02T06:10:09.686Z,4.50
2019-03-02T06:11:16.503Z,4.50
2019-03-02T06:12:23.248Z,4.50
2019-03-02T06:13:30.353Z,4.50
2019-03-02T06:14:37.022Z,4.50
2019-03-02T06:15:46.366Z,4.50
2019-03-02T06:16:53.734Z,4.60
2019-03-02T06:18:04.387Z,4.50
2019-03-02T06:19:10.275Z,4.50
2019-03-02T06:20:17.654Z,4.60
2019-03-02T06:21:24.638Z,4.60
2019-03-02T06:22:32.501Z,4.60
2019-03-02T06:23:39.216Z,4.60
2019-03-02T06:24:45.962Z,4.60
2019-03-02T06:25:55.131Z,4.50
2019-03-02T06:27:01.734Z,4.60
2019-03-02T06:28:08.809Z,4.60
2019-03-02T06:29:15.837Z,4.60
2019-03-02T06:30:22.970Z,4.60
2019-03-02T06:31:30.398Z,4.60
2019-03-02T06:32:37.470Z,4.60
2019-03-02T06:33:45.327Z,4.70
2019-03-02T06:34:55.780Z,4.70
2019-03-02T06:36:00.924Z,4.70
2019-03-02T06:37:07.601Z,4.70
2019-03-02T06:38:14.318Z,4.60
2019-03-02T06:39:20.996Z,4.60
2019-03-02T06:40:28.550Z,4.50
2019-03-02T06:41:35.262Z,4.50
2019-03-02T06:42:45.592Z,4.40
2019-03-02T06:43:50.572Z,4.40
2019-03-02T06:44:57.312Z,4.30
2019-03-02T06:46:04.049Z,4.30
2019-03-02T06:47:10.741Z,4.20
2019-03-02T06:48:17.785Z,4.30
2019-03-02T06:49:24.520Z,4.20
2019-03-02T06:50:35.300Z,4.30
2019-03-02T06:51:40.036Z,4.30
2019-03-02T06:52:46.712Z,4.30
2019-03-02T06:53:55.260Z,4.30
2019-03-02T06:55:02.410Z,4.30
2019-03-02T06:56:09.446Z,4.40
2019-03-02T06:57:17.017Z,4.40
2019-03-02T06:58:27.201Z,4.40
2019-03-02T06:59:35.779Z,4.40
2019-03-02T07:00:45.625Z,4.50
2019-03-02T07:01:51.914Z,4.50
2019-03-02T07:02:58.713Z,4.50
2019-03-02T07:04:05.452Z,4.50
2019-03-02T07:05:12.871Z,4.50
2019-03-02T07:06:20.232Z,4.50
2019-03-02T07:07:27.018Z,4.50
2019-03-02T07:08:36.241Z,4.50
2019-03-02T07:09:45.245Z,4.50
2019-03-02T07:10:54.445Z,4.60
2019-03-02T07:11:59.650Z,4.60
2019-03-02T07:13:08.273Z,4.60
2019-03-02T07:14:16.188Z,4.60
2019-03-02T07:15:23.335Z,4.60
2019-03-02T07:16:30.604Z,4.70
2019-03-02T07:17:56.307Z,4.70
2019-03-02T07:19:21.442Z,4.70
2019-03-02T07:20:29.903Z,4.70
2019-03-02T07:21:37.636Z,4.70
2019-03-02T07:22:48.626Z,4.80
2019-03-02T07:23:53.977Z,4.80
2019-03-02T07:25:01.453Z,4.80
2019-03-02T07:26:09.316Z,4.80
2019-03-02T07:27:16.704Z,4.90
2019-03-02T07:28:23.753Z,4.90
2019-03-02T07:29:32.023Z,4.90
2019-03-02T07:30:40.748Z,4.90
2019-03-02T07:31:48.082Z,4.90
2019-03-02T07:32:55.177Z,4.90
2019-03-02T07:34:04.823Z,4.90
2019-03-02T07:35:11.167Z,4.90
2019-03-02T07:36:18.270Z,4.90
2019-03-02T07:37:25.189Z,5.00
2019-03-02T07:38:32.468Z,5.00
2019-03-02T07:39:39.981Z,4.90
2019-03-02T07:40:47.149Z,5.00
2019-03-02T07:41:58.000Z,5.00
2019-03-02T07:43:06.043Z,5.00
2019-03-02T07:44:11.805Z,5.10
2019-03-02T07:45:19.592Z,5.10
2019-03-02T07:46:26.330Z,5.10
2019-03-02T07:47:33.072Z,5.10
2019-03-02T07:48:40.439Z,5.10
2019-03-02T07:49:49.815Z,5.10
2019-03-02T07:50:56.771Z,5.20
2019-03-02T07:52:03.465Z,5.20
2019-03-02T07:53:10.151Z,5.20
2019-03-02T07:54:16.858Z,5.20
2019-03-02T07:55:23.622Z,5.30
2019-03-02T07:56:32.513Z,5.30
2019-03-02T07:57:40.634Z,5.40
2019-03-02T07:58:47.959Z,5.30
2019-03-02T07:59:54.745Z,5.40
2019-03-02T08:01:01.454Z,5.40
2019-03-02T08:02:08.429Z,5.40
2019-03-02T08:03:15.591Z,5.40
2019-03-02T08:04:22.639Z,5.40
2019-03-02T08:05:29.753Z,5.50
2019-03-02T08:06:36.670Z,5.50
2019-03-02T08:07:43.994Z,5.40
2019-03-02T08:08:51.401Z,5.50
2019-03-02T08:09:58.991Z,5.50
2019-03-02T08:11:07.133Z,5.50
2019-03-02T08:12:14.413Z,5.50
2019-03-02T08:13:21.161Z,5.50
2019-03-02T08:14:27.990Z,5.50
2019-03-02T08:15:35.296Z,5.50
2019-03-02T08:16:42.196Z,5.50
2019-03-02T08:17:50.145Z,5.50
2019-03-02T08:19:00.523Z,5.50
2019-03-02T08:20:08.470Z,5.50
2019-03-02T08:21:15.700Z,5.50
2019-03-02T08:22:22.727Z,5.50
2019-03-02T08:23:29.616Z,5.50
2019-03-02T08:24:40.256Z,5.50
2019-03-02T08:25:45.595Z,5.50
2019-03-02T08:26:52.520Z,5.50
2019-03-02T08:27:59.890Z,5.50
2019-03-02T08:29:06.960Z,5.60
2019-03-02T08:30:16.988Z,5.60
2019-03-02T08:31:24.102Z,5.60
2019-03-02T08:32:31.248Z,5.60
2019-03-02T08:33:45.845Z,5.60
2019-03-02T08:34:48.634Z,5.60
2019-03-02T08:35:57.061Z,5.60
2019-03-02T08:37:04.188Z,5.60
2019-03-02T08:38:10.949Z,5.60
2019-03-02T08:39:17.867Z,5.60
2019-03-02T08:40:25.238Z,5.60
2019-03-02T08:41:32.914Z,5.50
2019-03-02T08:42:41.531Z,5.50
2019-03-02T08:43:48.563Z,5.60
2019-03-02T08:44:55.314Z,5.60
2019-03-02T08:46:03.553Z,5.60
2019-03-02T08:47:11.496Z,5.70
2019-03-02T08:48:18.570Z,5.70
2019-03-02T08:49:26.102Z,5.70
2019-03-02T08:50:33.060Z,5.70
2019-03-02T08:51:40.161Z,5.70
2019-03-02T08:52:47.491Z,5.70
2019-03-02T08:53:54.250Z,5.70
2019-03-02T08:55:01.178Z,5.70
2019-03-02T08:56:09.895Z,5.70
2019-03-02T08:57:19.590Z,5.70
2019-03-02T08:58:25.314Z,5.70
2019-03-02T08:59:34.760Z,5.70
2019-03-02T09:00:43.152Z,5.60
2019-03-02T09:01:51.273Z,5.70
2019-03-02T09:03:00.476Z,5.70
2019-03-02T09:04:10.176Z,5.70
2019-03-02T09:05:16.032Z,5.80
2019-03-02T09:06:22.806Z,5.70
2019-03-02T09:07:29.933Z,5.70
2019-03-02T09:08:36.839Z,5.70
2019-03-02T09:09:43.856Z,5.70
2019-03-02T09:10:50.863Z,5.70
2019-03-02T09:11:57.594Z,5.80
2019-03-02T09:13:04.327Z,5.70
2019-03-02T09:14:12.718Z,5.80
2019-03-02T09:15:31.103Z,5.70
2019-03-02T09:16:38.641Z,5.70
2019-03-02T09:17:50.155Z,5.80
2019-03-02T09:18:55.254Z,5.80
2019-03-02T09:20:02.331Z,5.80
2019-03-02T09:21:12.411Z,5.80
2019-03-02T09:22:20.785Z,5.80
2019-03-02T09:23:27.397Z,5.90
2019-03-02T09:24:34.750Z,5.90
2019-03-02T09:25:41.466Z,5.90
2019-03-02T09:26:48.210Z,6.00
2019-03-02T09:27:55.585Z,6.00
2019-03-02T09:29:02.295Z,6.00
2019-03-02T09:30:13.111Z,6.00
2019-03-02T09:31:26.135Z,6.00
2019-03-02T09:32:28.514Z,6.00
2019-03-02T09:33:35.252Z,6.00
2019-03-02T09:34:42.254Z,6.10
2019-03-02T09:35:54.568Z,6.10
2019-03-02T09:36:58.058Z,6.10
2019-03-02T09:38:04.785Z,6.10
2019-03-02T09:39:11.792Z,6.10
2019-03-02T09:40:18.535Z,6.20
2019-03-02T09:41:25.605Z,6.20
2019-03-02T09:42:37.895Z,6.20
2019-03-02T09:43:41.755Z,6.10
2019-03-02T09:44:49.988Z,6.20
2019-03-02T09:46:08.661Z,6.20
2019-03-02T09:47:15.379Z,6.10
2019-03-02T09:48:24.600Z,6.10
2019-03-02T09:49:33.909Z,6.10
2019-03-02T09:50:38.987Z,6.10
2019-03-02T09:51:48.280Z,6.10
2019-03-02T09:52:55.812Z,6.20
2019-03-02T09:54:03.061Z,6.20
2019-03-02T09:55:11.363Z,6.20
2019-03-02T09:56:18.020Z,6.30
2019-03-02T09:57:24.755Z,6.40
2019-03-02T09:58:31.427Z,6.40
2019-03-02T09:59:38.111Z,6.40
2019-03-02T10:00:45.352Z,6.40
2019-03-02T10:01:52.469Z,6.40
2019-03-02T10:02:59.580Z,6.40
2019-03-02T10:04:06.414Z,6.40
2019-03-02T10:05:14.712Z,6.30
2019-03-02T10:06:25.295Z,6.30
2019-03-02T10:07:30.852Z,6.30
2019-03-02T10:08:37.567Z,6.30
2019-03-02T10:09:44.576Z,6.30
2019-03-02T10:10:51.889Z,6.30
2019-03-02T10:11:58.624Z,6.30
2019-03-02T10:13:05.297Z,6.30
2019-03-02T10:14:26.562Z,6.30
2019-03-02T10:15:34.164Z,6.20
2019-03-02T10:16:40.889Z,6.30
2019-03-02T10:17:47.855Z,6.30
2019-03-02T10:18:54.881Z,6.30
2019-03-02T10:20:05.133Z,6.30
2019-03-02T10:21:10.928Z,6.30
2019-03-02T10:22:19.802Z,6.40
2019-03-02T10:23:26.659Z,6.40
2019-03-02T10:24:33.729Z,6.40
2019-03-02T10:25:40.497Z,6.40
2019-03-02T10:26:47.611Z,6.50
2019-03-02T10:27:57.394Z,6.50
2019-03-02T10:29:03.182Z,6.50
2019-03-02T10:30:13.991Z,6.50
2019-03-02T10:31:20.706Z,6.60
2019-03-02T10:32:28.226Z,6.60
2019-03-02T10:33:34.975Z,6.60
2019-03-02T10:34:42.796Z,6.60
2019-03-02T10:35:53.252Z,6.60
2019-03-02T10:36:59.075Z,6.60
2019-03-02T10:38:06.265Z,6.60
2019-03-02T10:39:13.257Z,6.60
2019-03-02T10:40:20.166Z,6.60
2019-03-02T10:41:27.171Z,6.60
2019-03-02T10:42:35.977Z,6.60
2019-03-02T10:43:42.742Z,6.70
2019-03-02T10:44:49.681Z,6.70
2019-03-02T10:45:56.861Z,6.70
2019-03-02T10:47:05.440Z,6.80
2019-03-02T10:48:12.143Z,6.80
2019-03-02T10:49:19.318Z,6.80
2019-03-02T10:50:26.122Z,6.90
2019-03-02T10:51:33.948Z,6.90
2019-03-02T10:52:41.593Z,6.90
2019-03-02T10:53:48.682Z,6.90
2019-03-02T10:54:55.784Z,6.90
2019-03-02T10:56:02.743Z,6.90
2019-03-02T10:57:09.739Z,6.90
2019-03-02T10:58:17.068Z,6.90
2019-03-02T10:59:24.415Z,7.00
2019-03-02T11:00:31.699Z,6.90
2019-03-02T11:01:39.771Z,7.00
2019-03-02T11:02:48.007Z,7.00
2019-03-02T11:03:54.830Z,7.10
2019-03-02T11:05:10.134Z,7.20
2019-03-02T11:06:39.261Z,7.20
2019-03-02T11:08:06.296Z,7.10
2019-03-02T11:09:28.399Z,7.20
2019-03-02T11:10:42.556Z,7.30
2019-03-02T11:12:08.175Z,7.20
2019-03-02T11:13:26.557Z,7.30
2019-03-02T11:14:51.180Z,7.30
2019-03-02T11:16:23.529Z,7.40
2019-03-02T11:18:01.839Z,7.40
2019-03-02T11:19:34.111Z,7.40
2019-03-02T11:21:02.720Z,7.30
2019-03-02T11:22:38.775Z,7.40
2019-03-02T11:24:01.787Z,7.50
2019-03-02T11:25:27.507Z,7.50
2019-03-02T11:26:53.058Z,7.60
2019-03-02T11:28:17.726Z,7.50
2019-03-02T11:29:40.234Z,7.50
2019-03-02T11:31:06.076Z,7.50
2019-03-02T11:32:26.432Z,7.50
2019-03-02T11:34:01.334Z,7.50
2019-03-02T11:35:24.087Z,7.50
2019-03-02T11:36:52.524Z,7.70
2019-03-02T11:38:13.084Z,7.80
2019-03-02T11:39:41.370Z,8.00
2019-03-02T11:40:57.703Z,8.20
2019-03-02T11:42:29.371Z,8.10
2019-03-02T11:43:55.107Z,8.20
2019-03-02T11:45:38.254Z,8.30
2019-03-02T11:46:57.923Z,8.30
2019-03-02T11:48:22.579Z,8.30
2019-03-02T11:49:41.167Z,8.50
2019-03-02T11:50:55.576Z,8.70
2019-03-02T11:52:24.971Z,8.80
2019-03-02T11:54:03.423Z,8.80
2019-03-02T11:55:22.697Z,8.80
2019-03-02T11:56:48.418Z,9.00
2019-03-02T11:58:12.123Z,9.00
2019-03-02T11:59:42.093Z,9.10
2019-03-02T12:01:12.239Z,9.10
2019-03-02T12:02:37.876Z,9.10
2019-03-02T12:04:01.772Z,9.20
2019-03-02T12:05:41.458Z,9.20
2019-03-02T12:07:05.048Z,9.10
2019-03-02T12:08:22.013Z,8.90
2019-03-02T12:09:48.210Z,8.80
2019-03-02T12:11:13.982Z,8.90
2019-03-02T12:12:32.282Z,8.80
2019-03-02T12:14:00.917Z,8.90
2019-03-02T12:15:26.331Z,8.90
2019-03-02T12:17:04.591Z,9.00
2019-03-02T12:18:37.703Z,9.10
2019-03-02T12:20:09.113Z,9.10
2019-03-02T12:21:33.117Z,9.00
2019-03-02T12:22:47.874Z,9.10
2019-03-02T12:24:31.835Z,9.20
2019-03-02T12:26:02.070Z,9.30
2019-03-02T12:27:27.144Z,9.40
2019-03-02T12:29:09.207Z,9.50
2019-03-02T12:30:33.260Z,9.50
2019-03-02T12:31:58.819Z,9.70
2019-03-02T12:33:33.286Z,9.70
2019-03-02T12:35:04.041Z,9.70
2019-03-02T12:36:23.081Z,9.50
2019-03-02T12:37:40.656Z,9.50
2019-03-02T12:39:07.178Z,9.60
2019-03-02T12:40:36.310Z,9.60
2019-03-02T12:42:16.197Z,9.60
2019-03-02T12:44:00.557Z,9.80
2019-03-02T12:45:42.244Z,9.90
2019-03-02T12:47:10.885Z,10.00
2019-03-02T12:48:36.817Z,10.20
2019-03-02T12:50:18.921Z,10.30
2019-03-02T12:52:00.915Z,10.30
2019-03-02T12:53:17.899Z,10.30
2019-03-02T12:54:43.327Z,10.20
2019-03-02T12:56:09.620Z,10.30
2019-03-02T12:57:24.693Z,10.30
2019-03-02T12:58:44.592Z,10.50
2019-03-02T13:00:09.099Z,10.50
2019-03-02T13:01:43.023Z,10.50
2019-03-02T13:03:15.096Z,10.60
2019-03-02T13:04:51.335Z,10.70
2019-03-02T13:06:20.904Z,10.80
2019-03-02T13:07:50.836Z,10.80
2019-03-02T13:09:10.407Z,10.60
2019-03-02T13:10:27.227Z,10.50
2019-03-02T13:12:02.016Z,10.50
2019-03-02T13:13:20.739Z,10.50
2019-03-02T13:14:59.349Z,10.40
2019-03-02T13:16:19.908Z,10.40
2019-03-02T13:18:03.643Z,10.30
2019-03-02T13:19:28.143Z,10.40
2019-03-02T13:20:52.745Z,10.60
2019-03-02T13:22:29.719Z,10.70
2019-03-02T13:24:08.046Z,10.70
2019-03-02T13:25:37.139Z,10.70
2019-03-02T13:26:52.303Z,10.70
2019-03-02T13:28:17.206Z,10.70
2019-03-02T13:29:49.115Z,10.70
2019-03-02T13:31:34.280Z,10.70
2019-03-02T13:32:56.040Z,10.70
2019-03-02T13:34:28.559Z,10.80
2019-03-02T13:36:00.529Z,10.80
2019-03-02T13:37:33.403Z,10.90
2019-03-02T13:38:49.841Z,10.80
2019-03-02T13:40:22.401Z,10.80
2019-03-02T13:41:38.483Z,10.80
2019-03-02T13:42:52.322Z,10.90
2019-03-02T13:44:17.907Z,10.90
2019-03-02T13:45:41.355Z,10.90
2019-03-02T13:47:16.513Z,11.00
2019-03-02T13:48:40.344Z,10.90
2019-03-02T13:50:04.480Z,10.80
2019-03-02T13:51:21.046Z,10.90
2019-03-02T13:52:52.635Z,10.90
2019-03-02T13:54:18.532Z,10.90
2019-03-02T13:55:45.933Z,11.10
2019-03-02T13:57:16.649Z,11.20
2019-03-02T13:58:51.142Z,11.20
2019-03-02T14:00:11.227Z,11.30
2019-03-02T14:01:40.802Z,11.30
2019-03-02T14:03:14.182Z,11.40
2019-03-02T14:05:04.654Z,11.50
2019-03-02T14:06:23.881Z,11.40
2019-03-02T14:07:49.397Z,11.30
2019-03-02T14:09:10.129Z,11.30
2019-03-02T14:10:44.788Z,11.20
2019-03-02T14:12:11.947Z,11.20
2019-03-02T14:13:35.949Z,11.20
2019-03-02T14:15:21.789Z,11.20
2019-03-02T14:16:55.363Z,11.30
2019-03-02T14:18:32.208Z,11.30
2019-03-02T14:19:49.330Z,11.20
2019-03-02T14:21:24.086Z,11.20
2019-03-02T14:22:52.343Z,11.20
2019-03-02T14:24:25.524Z,11.30
2019-03-02T14:25:49.524Z,11.30
2019-03-02T14:27:27.961Z,11.30
2019-03-02T14:28:56.266Z,11.30
2019-03-02T14:30:09.232Z,11.40
2019-03-02T14:31:34.180Z,11.40
2019-03-02T14:32:53.086Z,11.30
2019-03-02T14:34:12.044Z,11.20
2019-03-02T14:35:28.268Z,11.20
2019-03-02T14:36:50.272Z,11.10
2019-03-02T14:38:15.807Z,11.10
2019-03-02T14:40:00.263Z,11.10
2019-03-02T14:41:24.498Z,11.20
2019-03-02T14:43:02.028Z,11.10
2019-03-02T14:44:33.492Z,11.10
2019-03-02T14:45:46.710Z,11.10
2019-03-02T14:47:11.988Z,11.00
2019-03-02T14:48:45.951Z,11.00
2019-03-02T14:50:23.236Z,11.00
2019-03-02T14:51:39.219Z,10.90
2019-03-02T14:52:54.688Z,11.00
2019-03-02T14:54:20.773Z,10.90
2019-03-02T14:55:48.911Z,11.00
2019-03-02T14:57:12.003Z,11.00
2019-03-02T14:58:37.817Z,11.10
2019-03-02T15:00:02.592Z,11.10
2019-03-02T15:01:22.094Z,11.10
2019-03-02T15:03:03.095Z,11.10
2019-03-02T15:04:47.127Z,11.20
2019-03-02T15:06:15.403Z,11.20
2019-03-02T15:08:00.279Z,11.30
2019-03-02T15:09:15.956Z,11.30
2019-03-02T15:10:28.285Z,11.30
2019-03-02T15:11:51.619Z,11.30
2019-03-02T15:13:10.957Z,11.20
2019-03-02T15:14:45.227Z,11.30
2019-03-02T15:16:16.293Z,11.20
2019-03-02T15:17:45.227Z,11.30
2019-03-02T15:19:08.221Z,11.20
2019-03-02T15:20:37.421Z,11.30
2019-03-02T15:22:24.250Z,11.20
2019-03-02T15:23:49.187Z,11.20
2019-03-02T15:25:13.833Z,11.20
2019-03-02T15:26:43.284Z,11.20
2019-03-02T15:28:01.132Z,11.20
2019-03-02T15:29:16.119Z,11.10
2019-03-02T15:30:44.832Z,11.10
2019-03-02T15:32:10.346Z,11.10
2019-03-02T15:33:23.063Z,11.10
2019-03-02T15:34:49.903Z,11.00
2019-03-02T15:36:14.623Z,11.00
2019-03-02T15:37:34.544Z,11.00
2019-03-02T15:39:03.491Z,11.00
2019-03-02T15:40:36.197Z,11.00
2019-03-02T15:42:08.953Z,11.00
2019-03-02T15:43:35.866Z,11.10
2019-03-02T15:44:59.944Z,11.10
2019-03-02T15:46:13.972Z,11.10
2019-03-02T15:47:26.023Z,11.10
2019-03-02T15:48:43.928Z,11.00
2019-03-02T15:50:17.589Z,11.10
2019-03-02T15:51:39.385Z,11.00
2019-03-02T15:53:00.951Z,11.00
2019-03-02T15:54:32.101Z,11.00
2019-03-02T15:55:57.792Z,11.00
2019-03-02T15:57:11.726Z,11.00
2019-03-02T15:58:45.315Z,11.00
2019-03-02T16:00:13.390Z,10.90
2019-03-02T16:01:34.201Z,11.00